Impacts METAR Board
IDs:

KAUS - Austin/Bergstrom Int, TX, US

Updated at: 1300 UTC 14 Dec 2019
Potential Impact None Slight Moderate High
Time 14/01Z 14/02Z 14/03Z 14/04Z 14/05Z 14/06Z 14/07Z 14/08Z 14/09Z 14/10Z 14/11Z 14/12Z 14/13Z
Temp53 51 51 45 46 44 44 41 43 43 41 41 38
Dewpt42 42 43 39 40 40 40 38 39 37 37 37 35
Altim29.84 29.85 29.86 29.87 29.88 29.88 29.87 29.88 29.87 29.87 29.86 29.86 29.88
VIS10 10 10 10 10 10 10 10 10 10 10 10 10
CIG250 -- -- -- -- -- -- -- -- -- -- -- --
CoverBKNSCTSCTFEWFEWSCTSCTFEWFEWCLRCLRCLRCLR
FltCatVFRVFRVFRVFRVFRVFRVFRVFRVFRVFRVFRVFRVFR
WX--------------------------
WDir000026002800260026000
WSpd0 0 0 0 3 0 3 0 3 0 3 0 0
WGst-- -- -- -- -- -- -- -- -- -- -- -- --
Raw hourly METARs
KAUS 140053Z 00000KT 10SM BKN250 12/06 A2984 RMK AO2 SLP108 T01170056
KAUS 140153Z 00000KT 10SM SCT250 11/06 A2985 RMK AO2 SLP111 T01060056
KAUS 140253Z 00000KT 10SM SCT250 11/06 A2986 RMK AO2 SLP114 T01060061 51014
KAUS 140353Z 00000KT 10SM FEW250 07/04 A2987 RMK AO2 SLP116 T00720039
KAUS 140453Z 26003KT 10SM FEW250 08/04 A2988 RMK AO2 SLP117 T00780044
KAUS 140553Z 00000KT 10SM SCT250 07/04 A2988 RMK AO2 SLP116 T00670044 10167 20067 402610017 50005
KAUS 140653Z 28003KT 10SM SCT250 07/04 A2987 RMK AO2 SLP114 T00670044
KAUS 140753Z 00000KT 10SM FEW250 05/03 A2988 RMK AO2 SLP116 T00500033
KAUS 140853Z 26003KT 10SM FEW250 06/04 A2987 RMK AO2 SLP111 T00610039 58003
KAUS 140953Z 00000KT 10SM CLR 06/03 A2987 RMK AO2 SLP112 T00610028
KAUS 141053Z 26003KT 10SM CLR 05/03 A2986 RMK AO2 SLP111 T00500028
KAUS 141153Z 00000KT 10SM CLR 05/03 A2986 RMK AO2 SLP113 T00500028 10083 20039 58002
KAUS 141253Z 00000KT 10SM CLR 03/02 A2988 RMK AO2 SLP122 T00330017



Page loaded:  13:43 UTC  |   05:43 AM Pacific  |   06:43 AM Mountain  |   07:43 AM Central  |   08:43 AM Eastern

 

ADVISORIES

FORECASTS

FORECASTS

OBSERVATIONS

USER TOOLS

ABOUT US